createdAt,value
2022-11-16T00:02:15.492Z,101122.81
2022-11-16T00:04:44.704Z,101118.38
2022-11-16T00:07:13.551Z,101122.09
2022-11-16T00:09:42.136Z,101123.81
2022-11-16T00:12:12.849Z,101128.31
2022-11-16T00:14:41.383Z,101135.44
2022-11-16T00:17:09.995Z,101135.44
2022-11-16T00:19:39.496Z,101135.50
2022-11-16T00:22:08.141Z,101132.78
2022-11-16T00:24:36.979Z,101134.56
2022-11-16T00:27:05.726Z,101142.53
2022-11-16T00:29:35.771Z,101131.84
2022-11-16T00:32:04.293Z,101138.81
2022-11-16T00:34:33.331Z,101140.66
2022-11-16T00:37:01.800Z,101133.78
2022-11-16T00:39:30.380Z,101153.94
2022-11-16T00:41:59.069Z,101145.78
2022-11-16T00:44:27.750Z,101146.88
2022-11-16T00:46:57.986Z,101148.78
2022-11-16T00:49:26.663Z,101152.34
2022-11-16T00:51:55.781Z,101154.13
2022-11-16T00:54:25.864Z,101155.94
2022-11-16T00:56:54.610Z,101165.75
2022-11-16T00:59:23.918Z,101152.63
2022-11-16T01:01:55.929Z,101162.16
2022-11-16T01:04:26.066Z,101166.69
2022-11-16T01:06:54.687Z,101162.31
2022-11-16T01:09:26.161Z,101155.19
2022-11-16T01:12:13.077Z,101161.75
2022-11-16T01:14:45.053Z,101165.59
2022-11-16T01:17:14.295Z,101166.81
2022-11-16T01:19:44.464Z,101176.50
2022-11-16T01:22:13.179Z,101171.31
2022-11-16T01:24:41.805Z,101165.75
2022-11-16T01:27:10.515Z,101175.84
2022-11-16T01:29:41.489Z,101163.25
2022-11-16T01:32:10.433Z,101165.94
2022-11-16T01:34:39.338Z,101166.25
2022-11-16T01:37:22.619Z,101170.81
2022-11-16T01:39:52.428Z,101170.53
2022-11-16T01:42:24.020Z,101166.34
2022-11-16T01:45:03.347Z,101162.31
2022-11-16T01:47:32.204Z,101160.69
2022-11-16T01:50:07.425Z,101153.53
2022-11-16T01:52:44.445Z,101162.25
2022-11-16T01:55:13.953Z,101152.13
2022-11-16T01:58:07.427Z,101156.50
2022-11-16T02:00:38.616Z,101153.53
2022-11-16T02:03:27.685Z,101156.88
2022-11-16T02:06:14.618Z,101151.63
2022-11-16T02:09:23.310Z,101151.53
2022-11-16T02:12:14.163Z,101157.13
2022-11-16T02:14:58.236Z,101164.34
2022-11-16T02:17:34.398Z,101156.19
2022-11-16T02:20:41.397Z,101156.28
2022-11-16T02:23:49.634Z,101159.72
2022-11-16T02:26:34.845Z,101157.34
2022-11-16T02:29:22.920Z,101157.50
2022-11-16T02:31:59.212Z,101154.75
2022-11-16T02:34:33.314Z,101162.69
2022-11-16T02:37:03.989Z,101166.34
2022-11-16T02:39:35.952Z,101166.25
2022-11-16T02:42:09.724Z,101166.44
2022-11-16T02:44:45.034Z,101171.53
2022-11-16T02:47:20.792Z,101174.06
2022-11-16T02:49:56.643Z,101172.53
2022-11-16T02:52:27.792Z,101168.25
2022-11-16T02:54:56.783Z,101170.94
2022-11-16T02:57:40.456Z,101174.44
2022-11-16T03:00:20.403Z,101178.84
2022-11-16T03:02:59.160Z,101188.72
2022-11-16T03:05:35.922Z,101178.09
2022-11-16T03:08:15.557Z,101182.50
2022-11-16T03:11:06.167Z,101182.50
2022-11-16T03:13:37.208Z,101187.00
2022-11-16T03:16:15.059Z,101193.22
2022-11-16T03:18:45.923Z,101188.84
2022-11-16T03:21:20.081Z,101186.25
2022-11-16T03:23:50.061Z,101186.06
2022-11-16T03:26:25.218Z,101186.19
2022-11-16T03:28:59.924Z,101174.00
2022-11-16T03:31:36.241Z,101179.25
2022-11-16T03:34:11.272Z,101180.91
2022-11-16T03:36:43.633Z,101178.09
2022-11-16T03:39:20.996Z,101179.25
2022-11-16T03:41:51.200Z,101172.09
2022-11-16T03:44:22.084Z,101186.41
2022-11-16T03:46:52.255Z,101183.69
2022-11-16T03:49:23.092Z,101181.16
2022-11-16T03:51:54.233Z,101182.75
2022-11-16T03:54:23.988Z,101175.41
2022-11-16T03:56:52.484Z,101180.94
2022-11-16T03:59:22.843Z,101183.56
2022-11-16T04:01:55.727Z,101182.09
2022-11-16T04:04:45.185Z,101191.84
2022-11-16T04:07:31.658Z,101179.50
2022-11-16T04:10:18.624Z,101180.38
2022-11-16T04:13:05.160Z,101184.88
2022-11-16T04:15:52.247Z,101190.56
2022-11-16T04:18:40.306Z,101180.38
2022-11-16T04:21:36.065Z,101186.69
2022-11-16T04:24:17.503Z,101183.94
2022-11-16T04:27:07.271Z,101183.94
2022-11-16T04:29:37.620Z,101183.09
2022-11-16T04:32:24.979Z,101187.44
2022-11-16T04:35:13.347Z,101190.19
2022-11-16T04:37:54.942Z,101190.97
2022-11-16T04:40:30.582Z,101182.09
2022-11-16T04:43:05.066Z,101181.03
2022-11-16T04:46:01.020Z,101188.09
2022-11-16T04:48:37.013Z,101185.53
2022-11-16T04:51:08.059Z,101182.94
2022-11-16T04:53:40.134Z,101183.81
2022-11-16T04:56:20.392Z,101183.69
2022-11-16T04:58:52.927Z,101181.94
2022-11-16T05:01:42.250Z,101187.19
2022-11-16T05:04:11.351Z,101186.34
2022-11-16T05:06:41.912Z,101189.19
2022-11-16T05:09:10.832Z,101186.59
2022-11-16T05:11:40.118Z,101184.78
2022-11-16T05:14:10.660Z,101189.25
2022-11-16T05:16:41.073Z,101190.00
2022-11-16T05:19:30.150Z,101185.53
2022-11-16T05:22:03.861Z,101187.38
2022-11-16T05:24:34.430Z,101187.63
2022-11-16T05:27:05.938Z,101188.72
2022-11-16T05:29:35.222Z,101187.06
2022-11-16T05:32:07.629Z,101194.16
2022-11-16T05:34:39.945Z,101180.25
2022-11-16T05:37:10.691Z,101182.09
2022-11-16T05:39:40.409Z,101180.50
2022-11-16T05:42:11.784Z,101179.69
2022-11-16T05:44:40.914Z,101179.50
2022-11-16T05:47:11.095Z,101177.00
2022-11-16T05:49:40.067Z,101181.44
2022-11-16T05:52:11.101Z,101181.28
2022-11-16T05:54:45.556Z,101189.16
2022-11-16T05:57:15.574Z,101193.59
2022-11-16T05:59:44.429Z,101198.06
2022-11-16T06:02:13.323Z,101195.44
2022-11-16T06:04:42.664Z,101205.94
2022-11-16T06:07:15.898Z,101198.00
2022-11-16T06:09:45.263Z,101200.69
2022-11-16T06:12:21.584Z,101197.25
2022-11-16T06:14:52.963Z,101198.81
2022-11-16T06:17:21.747Z,101197.06
2022-11-16T06:19:50.672Z,101200.38
2022-11-16T06:22:21.198Z,101205.69
2022-11-16T06:24:50.303Z,101201.69
2022-11-16T06:27:19.341Z,101197.53
2022-11-16T06:29:48.089Z,101202.88
2022-11-16T06:32:16.953Z,101203.09
2022-11-16T06:34:45.652Z,101207.19
2022-11-16T06:37:14.772Z,101204.63
2022-11-16T06:39:44.987Z,101211.13
2022-11-16T06:42:13.908Z,101211.91
2022-11-16T06:44:42.928Z,101208.06
2022-11-16T06:47:15.031Z,101213.72
2022-11-16T06:49:44.440Z,101205.75
2022-11-16T06:52:20.372Z,101207.28
2022-11-16T06:54:50.827Z,101210.84
2022-11-16T06:57:19.908Z,101216.13
2022-11-16T06:59:48.708Z,101212.63
2022-11-16T07:02:21.579Z,101216.88
2022-11-16T07:04:51.161Z,101223.91
2022-11-16T07:07:20.434Z,101225.63
2022-11-16T07:09:50.811Z,101221.06
2022-11-16T07:12:23.469Z,101228.09
2022-11-16T07:14:52.532Z,101234.44
2022-11-16T07:17:21.647Z,101240.28
2022-11-16T07:19:50.623Z,101230.81
2022-11-16T07:22:22.346Z,101236.16
2022-11-16T07:24:54.528Z,101233.19
2022-11-16T07:27:24.241Z,101239.38
2022-11-16T07:29:54.217Z,101228.09
2022-11-16T07:32:35.840Z,101231.41
2022-11-16T07:35:14.269Z,101226.09
2022-11-16T07:37:43.084Z,101226.88
2022-11-16T07:40:18.025Z,101216.59
2022-11-16T07:42:47.813Z,101223.47
2022-11-16T07:45:32.441Z,101226.81
2022-11-16T07:48:08.061Z,101225.81
2022-11-16T07:50:57.881Z,101225.22
2022-11-16T07:53:27.102Z,101225.03
2022-11-16T07:55:57.573Z,101224.13
2022-11-16T07:58:29.981Z,101228.53
2022-11-16T08:01:06.217Z,101231.28
2022-11-16T08:03:37.691Z,101223.03
2022-11-16T08:06:09.586Z,101226.34
2022-11-16T08:08:38.522Z,101227.09
2022-11-16T08:11:11.342Z,101219.19
2022-11-16T08:13:41.634Z,101220.84
2022-11-16T08:16:14.242Z,101231.19
2022-11-16T08:18:44.274Z,101223.31
2022-11-16T08:21:15.703Z,101224.91
2022-11-16T08:23:46.303Z,101228.75
2022-11-16T08:26:19.545Z,101225.16
2022-11-16T08:28:54.301Z,101224.25
2022-11-16T08:31:30.212Z,101227.88
2022-11-16T08:34:08.549Z,101228.59
2022-11-16T08:36:40.172Z,101232.06
2022-11-16T08:39:09.919Z,101223.78
2022-11-16T08:41:42.367Z,101237.91
2022-11-16T08:44:12.828Z,101241.41
2022-11-16T08:46:45.268Z,101245.91
2022-11-16T08:49:30.226Z,101236.25
2022-11-16T08:51:59.511Z,101243.47
2022-11-16T08:54:30.465Z,101244.38
2022-11-16T08:57:01.170Z,101243.19
2022-11-16T08:59:33.108Z,101253.94
2022-11-16T09:02:08.069Z,101249.50
2022-11-16T09:04:37.468Z,101248.66
2022-11-16T09:07:06.578Z,101244.16
2022-11-16T09:09:35.632Z,101246.13
2022-11-16T09:12:07.042Z,101243.06
2022-11-16T09:14:35.801Z,101238.75
2022-11-16T09:17:04.484Z,101241.16
2022-11-16T09:19:33.300Z,101239.00
2022-11-16T09:22:02.154Z,101239.34
2022-11-16T09:24:30.823Z,101241.94
2022-11-16T09:27:01.575Z,101233.75
2022-11-16T09:29:31.768Z,101238.88
2022-11-16T09:32:01.173Z,101234.06
2022-11-16T09:34:29.887Z,101232.31
2022-11-16T09:36:58.742Z,101236.91
2022-11-16T09:39:32.045Z,101238.75
2022-11-16T09:42:30.142Z,101238.63
2022-11-16T09:45:06.524Z,101241.88
2022-11-16T09:47:45.911Z,101237.88
2022-11-16T09:50:28.024Z,101241.59
2022-11-16T09:53:01.376Z,101243.44
2022-11-16T09:55:35.709Z,101236.53
2022-11-16T09:58:09.568Z,101232.81
2022-11-16T10:00:46.457Z,101238.13
2022-11-16T10:03:16.965Z,101236.53
2022-11-16T10:05:51.624Z,101234.03
2022-11-16T10:08:29.591Z,101225.47
2022-11-16T10:11:07.802Z,101225.22
2022-11-16T10:13:50.624Z,101227.06
2022-11-16T10:16:31.554Z,101226.91
2022-11-16T10:19:09.412Z,101219.91
2022-11-16T10:21:48.832Z,101218.91
2022-11-16T10:24:37.766Z,101214.41
2022-11-16T10:27:38.680Z,101220.56
2022-11-16T10:30:14.782Z,101221.16
2022-11-16T10:32:51.266Z,101214.16
2022-11-16T10:35:28.445Z,101217.44
2022-11-16T10:37:59.704Z,101218.25
2022-11-16T10:40:32.601Z,101221.97
2022-11-16T10:43:06.903Z,101216.66
2022-11-16T10:45:41.472Z,101214.41
2022-11-16T10:48:24.664Z,101217.91
2022-11-16T10:50:54.601Z,101222.41
2022-11-16T10:53:36.372Z,101222.25
2022-11-16T10:56:18.919Z,101219.13
2022-11-16T10:58:52.910Z,101218.53
2022-11-16T11:01:37.969Z,101217.88
2022-11-16T11:04:25.767Z,101232.50
2022-11-16T11:06:56.912Z,101227.97
2022-11-16T11:09:29.335Z,101223.66
2022-11-16T11:12:20.283Z,101219.81
2022-11-16T11:15:03.851Z,101229.13
2022-11-16T11:17:34.267Z,101220.28
2022-11-16T11:20:07.525Z,101218.13
2022-11-16T11:22:44.511Z,101221.84
2022-11-16T11:25:23.166Z,101217.63
2022-11-16T11:27:52.628Z,101217.69
2022-11-16T11:30:22.758Z,101221.97
2022-11-16T11:32:53.099Z,101228.44
2022-11-16T11:35:28.347Z,101223.19
2022-11-16T11:38:02.153Z,101217.88
2022-11-16T11:40:33.883Z,101217.34
2022-11-16T11:43:04.286Z,101226.22
2022-11-16T11:45:40.330Z,101229.75
2022-11-16T11:48:24.027Z,101227.16
2022-11-16T11:50:56.955Z,101236.72
2022-11-16T11:53:53.252Z,101238.81
2022-11-16T11:56:22.107Z,101234.31
2022-11-16T11:58:51.948Z,101236.06
2022-11-16T12:01:47.108Z,101224.56
2022-11-16T12:04:56.547Z,101236.34
2022-11-16T12:07:41.646Z,101239.13
2022-11-16T12:10:22.210Z,101236.56
2022-11-16T12:13:03.603Z,101229.38
2022-11-16T12:15:37.668Z,101222.31
2022-11-16T12:18:24.129Z,101226.69
2022-11-16T12:21:02.541Z,101228.81
2022-11-16T12:23:56.373Z,101229.81
2022-11-16T12:26:35.224Z,101236.69
2022-11-16T12:29:20.589Z,101231.56
2022-11-16T12:32:10.704Z,101226.22
2022-11-16T12:34:52.613Z,101226.06
2022-11-16T12:37:30.424Z,101241.13
2022-11-16T12:40:23.023Z,101234.97
2022-11-16T12:43:00.225Z,101238.59
2022-11-16T12:45:47.828Z,101222.94
2022-11-16T12:48:48.761Z,101230.72
2022-11-16T12:51:32.286Z,101228.16
2022-11-16T12:54:16.660Z,101230.84
2022-11-16T12:56:53.664Z,101227.38
2022-11-16T12:59:37.922Z,101227.53
2022-11-16T13:02:17.887Z,101228.56
2022-11-16T13:04:50.826Z,101228.75
2022-11-16T13:07:25.924Z,101228.03
2022-11-16T13:10:00.545Z,101231.53
2022-11-16T13:12:32.657Z,101235.03
2022-11-16T13:15:04.872Z,101237.66
2022-11-16T13:17:39.508Z,101246.53
2022-11-16T13:20:40.085Z,101231.63
2022-11-16T13:23:16.146Z,101235.03
2022-11-16T13:25:52.341Z,101238.44
2022-11-16T13:28:33.851Z,101234.28
2022-11-16T13:31:11.590Z,101245.97
2022-11-16T13:33:50.599Z,101240.66
2022-11-16T13:36:45.361Z,101242.72
2022-11-16T13:39:22.668Z,101249.84
2022-11-16T13:42:06.874Z,101242.03
2022-11-16T13:44:37.446Z,101241.91
2022-11-16T13:47:19.501Z,101242.63
2022-11-16T13:49:52.690Z,101237.16
2022-11-16T13:52:26.358Z,101237.91
2022-11-16T13:55:14.247Z,101227.91
2022-11-16T13:57:52.594Z,101229.38
2022-11-16T14:00:31.025Z,101230.84
2022-11-16T14:03:33.249Z,101237.69
2022-11-16T14:06:02.220Z,101232.16
2022-11-16T14:08:53.270Z,101230.91
2022-11-16T14:11:37.330Z,101223.94
2022-11-16T14:14:12.446Z,101230.13
2022-11-16T14:16:48.882Z,101226.31
2022-11-16T14:19:55.203Z,101225.56
2022-11-16T14:22:49.059Z,101216.94
2022-11-16T14:25:32.019Z,101224.91
2022-11-16T14:28:35.266Z,101217.56
2022-11-16T14:31:15.648Z,101217.81
2022-11-16T14:33:51.475Z,101222.88
2022-11-16T14:36:37.036Z,101222.91
2022-11-16T14:39:38.749Z,101226.38
2022-11-16T14:42:17.144Z,101230.63
2022-11-16T14:44:46.350Z,101231.31
2022-11-16T14:47:24.978Z,101234.88
2022-11-16T14:49:55.826Z,101229.72
2022-11-16T14:52:35.700Z,101226.94
2022-11-16T14:55:08.669Z,101236.03
2022-11-16T14:57:37.605Z,101228.47
2022-11-16T15:00:12.426Z,101233.59
2022-11-16T15:02:41.557Z,101236.28
2022-11-16T15:05:17.968Z,101234.59
2022-11-16T15:07:51.053Z,101238.13
2022-11-16T15:10:22.322Z,101228.34
2022-11-16T15:12:52.884Z,101229.88
2022-11-16T15:15:25.247Z,101234.88
2022-11-16T15:18:08.114Z,101232.28
2022-11-16T15:20:39.633Z,101227.91
2022-11-16T15:23:15.995Z,101227.69
2022-11-16T15:25:46.134Z,101231.22
2022-11-16T15:28:19.893Z,101235.78
2022-11-16T15:30:52.234Z,101231.22
2022-11-16T15:33:25.924Z,101236.34
2022-11-16T15:35:56.624Z,101238.28
2022-11-16T15:38:28.041Z,101234.44
2022-11-16T15:40:58.504Z,101230.19
2022-11-16T15:43:30.443Z,101236.25
2022-11-16T15:46:01.002Z,101240.13
2022-11-16T15:48:31.122Z,101243.75
2022-11-16T15:51:09.228Z,101249.72
2022-11-16T15:53:39.962Z,101239.25
2022-11-16T15:56:14.772Z,101246.16
2022-11-16T15:58:44.135Z,101244.56
2022-11-16T16:01:14.375Z,101246.34
2022-11-16T16:03:55.323Z,101247.38
2022-11-16T16:06:47.929Z,101246.50
2022-11-16T16:09:24.399Z,101241.94
2022-11-16T16:11:53.543Z,101243.56
2022-11-16T16:14:27.806Z,101238.63
2022-11-16T16:16:58.527Z,101240.59
2022-11-16T16:19:36.337Z,101245.03
2022-11-16T16:22:13.897Z,101244.84
2022-11-16T16:24:45.015Z,101238.56
2022-11-16T16:27:15.077Z,101249.34
2022-11-16T16:29:44.075Z,101250.03
2022-11-16T16:32:24.414Z,101237.91
2022-11-16T16:34:53.454Z,101243.56
2022-11-16T16:37:24.394Z,101242.03
2022-11-16T16:39:52.796Z,101237.91
2022-11-16T16:42:21.431Z,101242.94
2022-11-16T16:44:51.020Z,101239.75
2022-11-16T16:47:20.898Z,101242.56
2022-11-16T16:49:49.965Z,101238.41
2022-11-16T16:52:18.607Z,101244.03
2022-11-16T16:54:48.840Z,101249.56
2022-11-16T16:57:18.744Z,101242.50
2022-11-16T16:59:48.703Z,101250.16
2022-11-16T17:02:18.988Z,101244.41
2022-11-16T17:04:49.169Z,101245.88
2022-11-16T17:07:17.878Z,101238.94
2022-11-16T17:09:46.524Z,101243.53
2022-11-16T17:12:16.523Z,101229.56
2022-11-16T17:14:51.463Z,101234.97
2022-11-16T17:17:24.912Z,101237.97
2022-11-16T17:19:54.415Z,101244.34
2022-11-16T17:22:24.255Z,101238.06
2022-11-16T17:24:53.016Z,101235.44
2022-11-16T17:27:25.816Z,101234.06
2022-11-16T17:29:58.356Z,101234.91
2022-11-16T17:32:27.435Z,101239.41
2022-11-16T17:34:56.523Z,101228.94
2022-11-16T17:37:26.353Z,101232.16
2022-11-16T17:39:55.004Z,101242.00
2022-11-16T17:42:25.788Z,101242.97
2022-11-16T17:44:55.562Z,101230.44
2022-11-16T17:47:25.365Z,101233.25
2022-11-16T17:49:54.144Z,101239.19
2022-11-16T17:52:22.698Z,101225.78
2022-11-16T17:54:52.062Z,101232.94
2022-11-16T17:57:20.819Z,101225.13
2022-11-16T17:59:51.443Z,101235.78
2022-11-16T18:02:20.168Z,101239.97
2022-11-16T18:04:51.263Z,101231.47
2022-11-16T18:07:21.040Z,101237.50
2022-11-16T18:09:49.868Z,101238.31
2022-11-16T18:12:18.464Z,101228.59
2022-11-16T18:15:13.391Z,101233.88
2022-11-16T18:17:37.923Z,101232.91
2022-11-16T18:20:14.131Z,101233.94
2022-11-16T18:22:43.035Z,101234.00
2022-11-16T18:25:11.563Z,101233.25
2022-11-16T18:27:40.450Z,101243.78
2022-11-16T18:30:10.187Z,101242.75
2022-11-16T18:32:40.410Z,101243.94
2022-11-16T18:35:12.589Z,101246.38
2022-11-16T18:37:44.295Z,101246.38
2022-11-16T18:40:14.334Z,101244.81
2022-11-16T18:42:43.072Z,101240.41
2022-11-16T18:45:12.075Z,101249.81
2022-11-16T18:47:42.233Z,101245.63
2022-11-16T18:50:18.968Z,101247.34
2022-11-16T18:52:50.493Z,101234.53
2022-11-16T18:55:23.434Z,101243.03
2022-11-16T18:57:52.006Z,101234.41
2022-11-16T19:00:22.124Z,101239.00
2022-11-16T19:02:52.803Z,101246.47
2022-11-16T19:05:21.506Z,101240.16
2022-11-16T19:07:50.206Z,101230.75
2022-11-16T19:10:19.298Z,101232.44
2022-11-16T19:12:48.514Z,101230.03
2022-11-16T19:15:19.741Z,101232.31
2022-11-16T19:18:19.403Z,101225.69
2022-11-16T19:20:39.038Z,101227.41
2022-11-16T19:23:09.846Z,101227.78
2022-11-16T19:25:38.427Z,101232.44
2022-11-16T19:28:07.367Z,101228.00
2022-11-16T19:30:36.244Z,101235.09
2022-11-16T19:33:05.025Z,101234.53
2022-11-16T19:35:33.703Z,101234.53
2022-11-16T19:38:03.987Z,101238.84
2022-11-16T19:40:32.847Z,101231.84
2022-11-16T19:43:01.486Z,101230.25
2022-11-16T19:45:30.702Z,101233.72
2022-11-16T19:47:59.673Z,101226.75
2022-11-16T19:50:28.257Z,101232.38
2022-11-16T19:53:01.411Z,101233.25
2022-11-16T19:55:31.760Z,101230.59
2022-11-16T19:58:00.877Z,101230.50
2022-11-16T20:00:29.616Z,101230.31
2022-11-16T20:02:58.627Z,101231.19
2022-11-16T20:05:30.763Z,101244.00
2022-11-16T20:07:59.652Z,101225.25
2022-11-16T20:10:31.654Z,101238.31
2022-11-16T20:13:00.412Z,101232.25
2022-11-16T20:15:29.381Z,101220.66
2022-11-16T20:18:01.220Z,101234.28
2022-11-16T20:20:29.952Z,101238.16
2022-11-16T20:22:58.637Z,101232.84
2022-11-16T20:25:27.691Z,101230.22
2022-11-16T20:27:57.834Z,101233.28
2022-11-16T20:30:26.512Z,101233.38
2022-11-16T20:32:55.112Z,101238.03
2022-11-16T20:35:23.774Z,101242.16
2022-11-16T20:37:52.965Z,101246.84
2022-11-16T20:40:21.606Z,101244.28
2022-11-16T20:42:50.405Z,101245.84
2022-11-16T20:45:20.572Z,101236.94
2022-11-16T20:47:49.192Z,101242.22
2022-11-16T20:50:19.568Z,101237.50
2022-11-16T20:52:52.536Z,101248.56
2022-11-16T20:55:21.558Z,101242.50
2022-11-16T20:57:50.139Z,101248.56
2022-11-16T21:00:20.865Z,101240.34
2022-11-16T21:02:49.579Z,101246.81
2022-11-16T21:05:18.457Z,101246.47
2022-11-16T21:07:47.239Z,101243.50
2022-11-16T21:10:22.078Z,101242.81
2022-11-16T21:13:08.017Z,101243.53
2022-11-16T21:15:38.657Z,101249.25
2022-11-16T21:18:10.320Z,101250.03
2022-11-16T21:20:39.169Z,101259.41
2022-11-16T21:23:07.689Z,101244.69
2022-11-16T21:25:36.404Z,101240.41
2022-11-16T21:28:05.685Z,101238.94
2022-11-16T21:30:34.648Z,101234.50
2022-11-16T21:33:04.705Z,101223.72
2022-11-16T21:35:33.584Z,101212.50
2022-11-16T21:38:04.095Z,101218.78
2022-11-16T21:40:32.845Z,101217.50
2022-11-16T21:43:01.727Z,101215.47
2022-11-16T21:45:30.503Z,101218.94
2022-11-16T21:47:59.546Z,101210.56
2022-11-16T21:50:32.195Z,101215.06
2022-11-16T21:53:01.267Z,101214.25
2022-11-16T21:55:30.962Z,101216.44
2022-11-16T21:58:03.665Z,101211.47
2022-11-16T22:00:32.844Z,101215.75
2022-11-16T22:03:01.470Z,101220.25
2022-11-16T22:05:48.691Z,101222.31
2022-11-16T22:08:17.606Z,101219.88
2022-11-16T22:10:52.440Z,101216.75
2022-11-16T22:13:22.008Z,101210.19
2022-11-16T22:15:50.584Z,101211.78
2022-11-16T22:18:19.121Z,101211.59
2022-11-16T22:20:50.848Z,101213.41
2022-11-16T22:23:23.104Z,101202.53
2022-11-16T22:25:52.884Z,101203.84
2022-11-16T22:28:21.734Z,101205.72
2022-11-16T22:30:52.240Z,101196.50
2022-11-16T22:33:21.344Z,101209.94
2022-11-16T22:35:51.485Z,101196.94
2022-11-16T22:38:20.382Z,101202.53
2022-11-16T22:40:53.220Z,101190.66
2022-11-16T22:43:23.701Z,101199.53
2022-11-16T22:45:52.763Z,101188.88
2022-11-16T22:48:21.581Z,101189.00
2022-11-16T22:50:51.749Z,101190.25
2022-11-16T22:53:20.382Z,101185.81
2022-11-16T22:55:49.201Z,101184.50
2022-11-16T22:58:17.983Z,101181.19
2022-11-16T23:00:46.945Z,101175.81
2022-11-16T23:03:15.680Z,101170.22
2022-11-16T23:05:44.447Z,101163.88
2022-11-16T23:08:14.506Z,101164.25
2022-11-16T23:10:56.842Z,101159.63
2022-11-16T23:13:42.980Z,101163.53
2022-11-16T23:16:11.532Z,101156.66
2022-11-16T23:18:40.039Z,101155.84
2022-11-16T23:21:26.096Z,101155.81
2022-11-16T23:24:13.554Z,101157.22
2022-11-16T23:26:59.375Z,101152.78
2022-11-16T23:29:28.117Z,101151.94
2022-11-16T23:31:56.605Z,101155.19
2022-11-16T23:34:25.253Z,101150.13
2022-11-16T23:36:53.760Z,101143.81
2022-11-16T23:39:23.876Z,101151.44
2022-11-16T23:42:09.583Z,101156.31
2022-11-16T23:44:38.145Z,101152.69
2022-11-16T23:47:06.720Z,101149.78
2022-11-16T23:49:35.503Z,101150.56
2022-11-16T23:52:04.063Z,101150.75
2022-11-16T23:54:33.972Z,101154.88
2022-11-16T23:57:02.433Z,101152.59
2022-11-16T23:59:31.085Z,101156.88
